createdAt,value
2019-05-20T00:00:36.338Z,16.71
2019-05-20T00:03:06.570Z,16.73
2019-05-20T00:05:36.867Z,16.78
2019-05-20T00:08:07.113Z,16.78
2019-05-20T00:10:37.492Z,16.81
2019-05-20T00:13:07.646Z,16.83
2019-05-20T00:15:38.010Z,16.84
2019-05-20T00:18:08.157Z,16.82
2019-05-20T00:20:38.357Z,16.79
2019-05-20T00:23:08.641Z,16.76
2019-05-20T00:25:38.874Z,16.75
2019-05-20T00:28:09.215Z,16.75
2019-05-20T00:30:39.422Z,16.74
2019-05-20T00:33:09.694Z,16.69
2019-05-20T00:35:39.917Z,16.61
2019-05-20T00:38:10.246Z,16.59
2019-05-20T00:40:40.401Z,16.54
2019-05-20T00:43:10.616Z,16.52
2019-05-20T00:45:41.014Z,16.56
2019-05-20T00:48:11.167Z,16.51
2019-05-20T00:50:41.430Z,16.50
2019-05-20T00:53:11.602Z,16.43
2019-05-20T00:55:41.731Z,16.40
2019-05-20T00:58:11.879Z,16.37
2019-05-20T01:00:42.240Z,16.33
2019-05-20T01:03:12.669Z,16.34
2019-05-20T01:05:42.895Z,16.34
2019-05-20T01:08:13.119Z,16.29
2019-05-20T01:10:43.569Z,16.28
2019-05-20T01:13:13.980Z,16.29
2019-05-20T01:15:44.514Z,16.27
2019-05-20T01:18:14.856Z,16.26
2019-05-20T01:20:45.405Z,16.24
2019-05-20T01:23:15.780Z,16.21
2019-05-20T01:25:46.123Z,16.20
2019-05-20T01:28:16.442Z,16.16
2019-05-20T01:30:46.914Z,16.17
2019-05-20T01:33:17.338Z,16.15
2019-05-20T01:35:47.618Z,16.13
2019-05-20T01:38:17.745Z,16.16
2019-05-20T01:40:48.117Z,16.20
2019-05-20T01:43:18.521Z,16.24
2019-05-20T01:45:48.787Z,16.20
2019-05-20T01:48:19.171Z,16.19
2019-05-20T01:50:49.622Z,16.21
2019-05-20T01:53:20.054Z,16.24
2019-05-20T01:55:50.357Z,16.33
2019-05-20T01:58:20.807Z,16.37
2019-05-20T02:00:51.122Z,16.39
2019-05-20T02:03:31.314Z,16.38
2019-05-20T02:05:53.559Z,16.38
2019-05-20T02:08:24.740Z,16.38
2019-05-20T02:10:56.725Z,16.39
2019-05-20T02:13:29.010Z,16.49
2019-05-20T02:16:06.890Z,16.86
2019-05-20T02:18:37.175Z,17.47
2019-05-20T02:21:07.545Z,18.21
2019-05-20T02:23:37.846Z,18.88
2019-05-20T02:26:08.158Z,19.59
2019-05-20T02:28:38.413Z,20.40
2019-05-20T02:31:08.637Z,21.24
2019-05-20T02:33:50.736Z,21.98
2019-05-20T02:36:10.901Z,22.77
2019-05-20T02:38:41.088Z,23.40
2019-05-20T02:41:11.368Z,24.09
2019-05-20T02:43:41.714Z,24.68
2019-05-20T02:46:11.933Z,25.06
2019-05-20T02:48:42.191Z,25.60
2019-05-20T02:51:12.391Z,26.16
2019-05-20T02:53:42.596Z,26.63
2019-05-20T02:56:12.822Z,27.09
2019-05-20T02:58:43.104Z,27.51
2019-05-20T03:01:13.316Z,28.03
2019-05-20T03:03:43.505Z,28.52
2019-05-20T03:06:13.906Z,28.77
2019-05-20T03:08:44.136Z,28.96
2019-05-20T03:11:14.500Z,29.23
2019-05-20T03:13:44.729Z,29.54
2019-05-20T03:16:15.833Z,29.82
2019-05-20T03:18:46.206Z,30.25
2019-05-20T03:21:16.486Z,30.47
2019-05-20T03:23:46.635Z,30.86
2019-05-20T03:26:16.917Z,30.92
2019-05-20T03:28:47.219Z,31.24
2019-05-20T03:31:17.464Z,31.11
2019-05-20T03:33:47.663Z,31.40
2019-05-20T03:36:17.840Z,31.39
2019-05-20T03:38:48.109Z,31.99
2019-05-20T03:41:18.337Z,32.45
2019-05-20T03:43:48.645Z,33.02
2019-05-20T03:46:18.841Z,33.61
2019-05-20T03:48:49.161Z,33.66
2019-05-20T03:51:19.372Z,33.77
2019-05-20T03:53:49.551Z,33.90
2019-05-20T03:56:19.831Z,34.22
2019-05-20T03:58:50.059Z,34.54
2019-05-20T04:01:20.241Z,34.49
2019-05-20T04:03:50.453Z,34.87
2019-05-20T04:06:20.666Z,34.98
2019-05-20T04:08:51.044Z,34.97
2019-05-20T04:11:21.404Z,34.62
2019-05-20T04:13:51.693Z,34.29
2019-05-20T04:16:21.976Z,34.21
2019-05-20T04:18:54.147Z,34.10
2019-05-20T04:21:24.098Z,34.60
2019-05-20T04:23:54.370Z,35.18
2019-05-20T04:26:24.645Z,34.93
2019-05-20T04:28:54.913Z,34.93
2019-05-20T04:31:25.167Z,35.58
2019-05-20T04:33:55.414Z,35.30
2019-05-20T04:36:25.633Z,35.03
2019-05-20T04:38:57.677Z,34.87
2019-05-20T04:41:27.903Z,35.08
2019-05-20T04:43:58.060Z,34.65
2019-05-20T04:46:28.434Z,35.05
2019-05-20T04:48:58.729Z,35.21
2019-05-20T04:51:28.975Z,35.62
2019-05-20T04:53:59.151Z,35.60
2019-05-20T04:56:29.592Z,35.47
2019-05-20T04:58:59.925Z,35.21
2019-05-20T05:01:30.461Z,35.37
2019-05-20T05:04:00.677Z,35.29
2019-05-20T05:06:30.970Z,35.22
2019-05-20T05:09:01.286Z,35.29
2019-05-20T05:11:31.605Z,35.00
2019-05-20T05:14:01.927Z,34.91
2019-05-20T05:16:32.169Z,35.64
2019-05-20T05:19:02.409Z,35.73
2019-05-20T05:21:32.693Z,36.12
2019-05-20T05:24:03.006Z,36.41
2019-05-20T05:26:33.289Z,35.92
2019-05-20T05:29:03.526Z,36.18
2019-05-20T05:31:33.861Z,36.12
2019-05-20T05:34:04.366Z,35.91
2019-05-20T05:36:35.014Z,36.07
2019-05-20T05:39:06.540Z,36.30
2019-05-20T05:41:36.817Z,36.32
2019-05-20T05:44:07.087Z,36.59
2019-05-20T05:46:37.350Z,36.36
2019-05-20T05:49:07.621Z,36.29
2019-05-20T05:51:37.820Z,36.74
2019-05-20T05:54:08.110Z,36.99
2019-05-20T05:56:38.349Z,36.90
2019-05-20T05:59:08.646Z,37.03
2019-05-20T06:01:38.909Z,37.01
2019-05-20T06:04:09.228Z,36.93
2019-05-20T06:06:39.451Z,36.80
2019-05-20T06:09:09.774Z,36.39
2019-05-20T06:11:40.092Z,36.58
2019-05-20T06:14:10.415Z,36.67
2019-05-20T06:16:40.687Z,36.46
2019-05-20T06:19:10.941Z,36.30
2019-05-20T06:21:41.086Z,36.28
2019-05-20T06:24:11.359Z,36.44
2019-05-20T06:26:41.617Z,36.16
2019-05-20T06:29:11.849Z,36.03
2019-05-20T06:31:42.113Z,36.13
2019-05-20T06:34:12.401Z,36.27
2019-05-20T06:36:44.346Z,36.22
2019-05-20T06:39:15.292Z,35.86
2019-05-20T06:41:45.547Z,35.34
2019-05-20T06:44:15.885Z,35.15
2019-05-20T06:46:46.164Z,35.35
2019-05-20T06:49:16.404Z,35.21
2019-05-20T06:51:46.689Z,34.96
2019-05-20T06:54:16.939Z,35.02
2019-05-20T06:56:47.306Z,34.96
2019-05-20T06:59:17.546Z,34.91
2019-05-20T07:01:47.811Z,34.68
2019-05-20T07:04:18.027Z,34.37
2019-05-20T07:06:48.321Z,34.45
2019-05-20T07:09:18.538Z,34.25
2019-05-20T07:11:52.673Z,33.97
2019-05-20T07:14:20.744Z,33.32
2019-05-20T07:16:51.104Z,31.73
2019-05-20T07:19:21.360Z,30.54
2019-05-20T07:21:51.586Z,29.52
2019-05-20T07:24:21.906Z,28.51
2019-05-20T07:26:52.163Z,27.80
2019-05-20T07:29:22.386Z,27.18
2019-05-20T07:31:52.620Z,26.66
2019-05-20T07:34:22.869Z,26.35
2019-05-20T07:37:02.393Z,26.12
2019-05-20T07:39:25.081Z,26.04
2019-05-20T07:41:55.333Z,26.01
2019-05-20T07:44:26.494Z,26.05
2019-05-20T07:46:56.855Z,26.11
2019-05-20T07:49:27.189Z,26.18
2019-05-20T07:51:57.807Z,26.16
2019-05-20T07:54:28.758Z,26.10
2019-05-20T07:57:01.693Z,26.03
2019-05-20T07:59:32.807Z,25.97
2019-05-20T08:02:03.101Z,26.01
2019-05-20T08:04:33.475Z,26.16
2019-05-20T08:07:24.677Z,26.32
2019-05-20T08:09:41.063Z,26.38
2019-05-20T08:12:08.021Z,26.39
2019-05-20T08:14:38.296Z,26.38
2019-05-20T08:17:08.605Z,26.41
2019-05-20T08:19:38.784Z,26.33
2019-05-20T08:22:08.944Z,26.31
2019-05-20T08:24:40.542Z,26.38
2019-05-20T08:27:10.873Z,26.27
2019-05-20T08:29:41.172Z,26.32
2019-05-20T08:32:11.446Z,26.54
2019-05-20T08:34:41.747Z,26.77
2019-05-20T08:37:12.012Z,26.93
2019-05-20T08:39:42.188Z,26.82
2019-05-20T08:42:12.424Z,26.55
2019-05-20T08:44:42.630Z,26.36
2019-05-20T08:47:12.832Z,26.32
2019-05-20T08:49:43.979Z,26.35
2019-05-20T08:52:14.703Z,26.23
2019-05-20T08:54:44.974Z,26.04
2019-05-20T08:57:15.281Z,25.99
2019-05-20T08:59:45.616Z,26.11
2019-05-20T09:02:15.875Z,26.26
2019-05-20T09:04:46.088Z,26.38
2019-05-20T09:07:16.323Z,26.56
2019-05-20T09:09:46.654Z,26.56
2019-05-20T09:12:17.078Z,26.50
2019-05-20T09:14:47.305Z,26.43
2019-05-20T09:17:17.583Z,26.43
2019-05-20T09:19:47.843Z,26.49
2019-05-20T09:22:18.093Z,26.49
2019-05-20T09:24:48.933Z,26.41
2019-05-20T09:27:19.664Z,26.40
2019-05-20T09:29:49.967Z,26.37
2019-05-20T09:32:20.294Z,26.42
2019-05-20T09:34:50.829Z,26.61
2019-05-20T09:37:21.116Z,26.56
2019-05-20T09:39:51.361Z,26.52
2019-05-20T09:42:21.638Z,26.53
2019-05-20T09:44:51.887Z,26.50
2019-05-20T09:47:22.184Z,26.52
2019-05-20T09:49:52.476Z,26.53
2019-05-20T09:52:22.751Z,26.45
2019-05-20T09:54:53.048Z,26.51
2019-05-20T09:57:24.956Z,26.50
2019-05-20T09:59:55.691Z,26.64
2019-05-20T10:02:35.305Z,26.79
2019-05-20T10:04:57.865Z,27.00
2019-05-20T10:07:28.236Z,27.15
2019-05-20T10:09:58.404Z,27.18
2019-05-20T10:12:44.688Z,27.22
2019-05-20T10:15:00.795Z,27.14
2019-05-20T10:17:31.084Z,27.07
2019-05-20T10:20:01.389Z,27.10
2019-05-20T10:22:31.704Z,27.22
2019-05-20T10:25:02.054Z,27.34
2019-05-20T10:27:32.407Z,27.48
2019-05-20T10:30:02.699Z,27.47
2019-05-20T10:32:32.967Z,27.46
2019-05-20T10:35:03.790Z,27.42
2019-05-20T10:37:34.054Z,27.27
2019-05-20T10:40:05.544Z,27.19
2019-05-20T10:42:35.865Z,27.26
2019-05-20T10:45:06.443Z,27.46
2019-05-20T10:47:36.751Z,27.52
2019-05-20T10:50:08.885Z,27.57
2019-05-20T10:52:39.129Z,27.67
2019-05-20T10:55:09.767Z,27.68
2019-05-20T10:57:40.138Z,27.41
2019-05-20T11:00:11.258Z,27.31
2019-05-20T11:02:41.548Z,27.36
2019-05-20T11:05:11.937Z,27.44
2019-05-20T11:07:42.140Z,27.39
2019-05-20T11:10:12.329Z,27.25
2019-05-20T11:12:42.550Z,27.22
2019-05-20T11:15:12.828Z,27.22
2019-05-20T11:17:43.080Z,27.15
2019-05-20T11:20:13.390Z,27.16
2019-05-20T11:22:43.624Z,27.23
2019-05-20T11:25:14.565Z,27.25
2019-05-20T11:27:44.786Z,27.23
2019-05-20T11:30:15.136Z,27.26
2019-05-20T11:32:45.678Z,27.24
2019-05-20T11:35:16.910Z,27.24
2019-05-20T11:37:47.132Z,27.38
2019-05-20T11:40:17.567Z,27.57
2019-05-20T11:42:47.834Z,27.70
2019-05-20T11:45:19.039Z,27.70
2019-05-20T11:47:49.407Z,27.56
2019-05-20T11:50:19.833Z,27.50
2019-05-20T11:52:50.019Z,27.41
2019-05-20T11:55:20.281Z,27.35
2019-05-20T11:57:50.543Z,27.28
2019-05-20T12:00:20.897Z,27.26
2019-05-20T12:02:51.228Z,27.28
2019-05-20T12:05:21.473Z,27.35
2019-05-20T12:07:51.733Z,27.38
2019-05-20T12:10:23.537Z,27.35
2019-05-20T12:12:53.983Z,27.31
2019-05-20T12:15:24.434Z,27.34
2019-05-20T12:17:54.675Z,27.42
2019-05-20T12:20:25.043Z,27.42
2019-05-20T12:22:55.305Z,27.42
2019-05-20T12:25:25.600Z,27.44
2019-05-20T12:27:55.904Z,27.46
2019-05-20T12:30:26.102Z,27.36
2019-05-20T12:33:17.246Z,27.31
2019-05-20T12:35:29.372Z,27.28
2019-05-20T12:37:59.718Z,27.34
2019-05-20T12:40:29.937Z,27.41
2019-05-20T12:43:04.162Z,27.41
2019-05-20T12:45:34.461Z,27.50
2019-05-20T12:48:05.875Z,27.52
2019-05-20T12:50:36.211Z,27.60
2019-05-20T12:53:06.434Z,27.58
2019-05-20T12:55:36.605Z,27.55
2019-05-20T12:58:06.864Z,27.54
2019-05-20T13:00:37.151Z,27.58
2019-05-20T13:03:09.016Z,27.65
2019-05-20T13:05:39.252Z,27.62
2019-05-20T13:08:09.529Z,27.55
2019-05-20T13:10:39.850Z,27.50
2019-05-20T13:13:10.167Z,27.51
2019-05-20T13:15:40.500Z,27.49
2019-05-20T13:18:10.953Z,27.44
2019-05-20T13:20:41.253Z,27.47
2019-05-20T13:23:13.909Z,27.50
2019-05-20T13:25:43.585Z,27.44
2019-05-20T13:28:13.871Z,27.29
2019-05-20T13:30:44.089Z,27.25
2019-05-20T13:33:14.310Z,27.31
2019-05-20T13:35:44.658Z,27.32
2019-05-20T13:38:14.806Z,27.34
2019-05-20T13:40:47.119Z,27.40
2019-05-20T13:43:17.041Z,27.42
2019-05-20T13:45:48.227Z,27.34
2019-05-20T13:48:18.994Z,27.30
2019-05-20T13:50:49.200Z,27.29
2019-05-20T13:53:19.553Z,27.30
2019-05-20T13:55:49.776Z,27.28
2019-05-20T13:58:20.012Z,27.22
2019-05-20T14:00:50.253Z,27.15
2019-05-20T14:03:20.574Z,27.17
2019-05-20T14:05:50.877Z,27.20
2019-05-20T14:08:21.154Z,27.18
2019-05-20T14:11:03.838Z,27.20
2019-05-20T14:13:23.634Z,27.20
2019-05-20T14:15:54.048Z,27.18
2019-05-20T14:18:24.332Z,27.21
2019-05-20T14:20:54.575Z,27.20
2019-05-20T14:23:24.856Z,27.16
2019-05-20T14:25:55.104Z,27.16
2019-05-20T14:28:25.400Z,27.14
2019-05-20T14:30:55.676Z,27.14
2019-05-20T14:33:25.850Z,27.11
2019-05-20T14:35:56.108Z,27.08
2019-05-20T14:38:26.435Z,27.03
2019-05-20T14:40:56.717Z,26.98
2019-05-20T14:43:27.133Z,27.00
2019-05-20T14:45:57.479Z,27.03
2019-05-20T14:48:27.788Z,27.00
2019-05-20T14:50:58.198Z,27.00
2019-05-20T14:53:28.445Z,26.98
2019-05-20T14:55:58.747Z,26.96
2019-05-20T14:58:29.008Z,26.94
2019-05-20T15:00:59.427Z,26.86
2019-05-20T15:03:29.711Z,26.83
2019-05-20T15:05:59.998Z,26.79
2019-05-20T15:08:33.904Z,26.75
2019-05-20T15:11:03.387Z,26.70
2019-05-20T15:13:33.638Z,26.67
2019-05-20T15:16:03.953Z,26.66
2019-05-20T15:18:34.307Z,26.65
2019-05-20T15:21:04.572Z,26.64
2019-05-20T15:23:34.810Z,26.66
2019-05-20T15:26:05.497Z,26.64
2019-05-20T15:28:35.746Z,26.62
2019-05-20T15:31:06.023Z,26.60
2019-05-20T15:33:36.307Z,26.56
2019-05-20T15:36:06.544Z,26.51
2019-05-20T15:38:36.841Z,26.46
2019-05-20T15:41:07.193Z,26.44
2019-05-20T15:43:38.771Z,26.38
2019-05-20T15:46:09.179Z,26.34
2019-05-20T15:48:39.698Z,26.30
2019-05-20T15:51:09.957Z,26.28
2019-05-20T15:53:40.202Z,26.26
2019-05-20T15:56:10.616Z,26.19
2019-05-20T15:58:40.915Z,26.12
2019-05-20T16:01:11.166Z,26.03
2019-05-20T16:03:41.400Z,25.97
2019-05-20T16:06:11.908Z,25.88
2019-05-20T16:08:42.123Z,25.81
2019-05-20T16:11:12.429Z,25.74
2019-05-20T16:13:42.676Z,25.67
2019-05-20T16:16:13.297Z,25.59
2019-05-20T16:18:43.896Z,25.53
2019-05-20T16:21:14.164Z,25.45
2019-05-20T16:23:44.385Z,25.38
2019-05-20T16:26:14.685Z,25.32
2019-05-20T16:28:44.907Z,25.27
2019-05-20T16:31:15.225Z,25.20
2019-05-20T16:33:45.566Z,25.13
2019-05-20T16:36:15.871Z,25.03
2019-05-20T16:38:46.108Z,24.98
2019-05-20T16:41:16.439Z,24.91
2019-05-20T16:43:46.797Z,24.81
2019-05-20T16:46:17.090Z,24.76
2019-05-20T16:48:47.315Z,24.66
2019-05-20T16:51:17.581Z,24.59
2019-05-20T16:53:47.871Z,24.49
2019-05-20T16:56:18.184Z,24.42
2019-05-20T16:58:48.539Z,24.35
2019-05-20T17:01:18.771Z,24.25
2019-05-20T17:03:48.988Z,24.13
2019-05-20T17:06:19.312Z,24.02
2019-05-20T17:08:49.663Z,23.94
2019-05-20T17:11:20.217Z,23.83
2019-05-20T17:13:52.054Z,23.75
2019-05-20T17:16:22.194Z,23.66
2019-05-20T17:18:52.567Z,23.59
2019-05-20T17:21:22.928Z,23.47
2019-05-20T17:23:53.317Z,23.33
2019-05-20T17:26:23.647Z,23.24
2019-05-20T17:28:53.916Z,23.13
2019-05-20T17:31:26.635Z,23.04
2019-05-20T17:33:57.767Z,22.94
2019-05-20T17:36:28.078Z,22.88
2019-05-20T17:38:58.421Z,22.82
2019-05-20T17:41:28.786Z,22.80
2019-05-20T17:43:58.951Z,22.80
2019-05-20T17:46:29.219Z,22.77
2019-05-20T17:48:59.628Z,22.69
2019-05-20T17:51:29.891Z,22.63
2019-05-20T17:54:00.187Z,22.54
2019-05-20T17:56:30.548Z,22.53
2019-05-20T17:59:00.767Z,22.47
2019-05-20T18:01:32.630Z,22.38
2019-05-20T18:04:04.750Z,22.28
2019-05-20T18:06:35.023Z,22.09
2019-05-20T18:09:10.071Z,21.91
2019-05-20T18:14:45.987Z,21.61
2019-05-20T18:17:16.409Z,21.42
2019-05-20T18:19:46.655Z,21.29
2019-05-20T18:22:16.917Z,21.20
2019-05-20T18:24:47.297Z,21.08
2019-05-20T18:27:17.739Z,21.00
2019-05-20T18:29:48.050Z,20.93
2019-05-20T18:32:18.359Z,20.83
2019-05-20T18:34:48.691Z,20.73
2019-05-20T18:37:18.956Z,20.66
2019-05-20T18:39:49.199Z,20.62
2019-05-20T18:42:19.456Z,20.59
2019-05-20T18:44:49.805Z,20.55
2019-05-20T18:47:20.063Z,20.48
2019-05-20T18:49:50.237Z,20.47
2019-05-20T18:52:20.536Z,20.42
2019-05-20T18:54:50.814Z,20.38
2019-05-20T18:57:21.081Z,20.32
2019-05-20T18:59:51.385Z,20.25
2019-05-20T19:02:21.740Z,20.22
2019-05-20T19:04:52.069Z,20.22
2019-05-20T19:07:25.323Z,20.18
2019-05-20T19:09:55.602Z,20.19
2019-05-20T19:12:25.939Z,20.23
2019-05-20T19:14:56.166Z,20.22
2019-05-20T19:17:26.350Z,20.17
2019-05-20T19:19:56.791Z,20.09
2019-05-20T19:22:27.090Z,20.03
2019-05-20T19:24:57.315Z,19.95
2019-05-20T19:27:27.517Z,19.86
2019-05-20T19:29:58.059Z,19.78
2019-05-20T19:32:28.432Z,19.70
2019-05-20T19:34:58.905Z,19.62
2019-05-20T19:37:29.247Z,19.57
2019-05-20T19:40:01.674Z,19.59
2019-05-20T19:42:32.052Z,19.60
2019-05-20T19:45:02.389Z,19.62
2019-05-20T19:47:32.701Z,19.61
2019-05-20T19:50:03.234Z,19.61
2019-05-20T19:52:33.502Z,19.58
2019-05-20T19:55:07.783Z,19.52
2019-05-20T19:57:37.947Z,19.47
2019-05-20T20:00:08.395Z,19.38
2019-05-20T20:02:38.665Z,19.34
2019-05-20T20:05:08.916Z,19.28
2019-05-20T20:07:39.177Z,19.22
2019-05-20T20:10:09.426Z,19.16
2019-05-20T20:12:39.644Z,19.09
2019-05-20T20:15:19.834Z,19.04
2019-05-20T20:17:50.058Z,19.09
2019-05-20T20:20:20.415Z,19.11
2019-05-20T20:22:50.688Z,19.15
2019-05-20T20:25:21.068Z,19.16
2019-05-20T20:27:51.290Z,19.15
2019-05-20T20:30:21.569Z,19.10
2019-05-20T20:32:51.748Z,19.13
2019-05-20T20:35:36.991Z,19.08
2019-05-20T20:37:53.993Z,19.02
2019-05-20T20:40:25.236Z,18.98
2019-05-20T20:42:55.654Z,18.93
2019-05-20T20:45:25.920Z,18.90
2019-05-20T20:47:57.200Z,18.85
2019-05-20T20:50:27.455Z,18.78
2019-05-20T20:52:58.300Z,18.76
2019-05-20T20:55:28.563Z,18.74
2019-05-20T20:57:58.815Z,18.71
2019-05-20T21:00:29.104Z,18.64
2019-05-20T21:02:59.373Z,18.62
2019-05-20T21:05:29.561Z,18.59
2019-05-20T21:07:59.759Z,18.52
2019-05-20T21:10:29.982Z,18.50
2019-05-20T21:13:00.328Z,18.46
2019-05-20T21:15:30.930Z,18.43
2019-05-20T21:18:01.746Z,18.39
2019-05-20T21:20:32.045Z,18.36
2019-05-20T21:23:02.188Z,18.37
2019-05-20T21:25:32.532Z,18.36
2019-05-20T21:28:02.699Z,18.34
2019-05-20T21:30:33.012Z,18.34
2019-05-20T21:33:09.346Z,18.35
2019-05-20T21:35:35.368Z,18.34
2019-05-20T21:38:05.745Z,18.34
2019-05-20T21:40:35.962Z,18.33
2019-05-20T21:43:06.213Z,18.29
2019-05-20T21:45:36.371Z,18.24
2019-05-20T21:48:06.599Z,18.19
2019-05-20T21:50:36.807Z,18.17
2019-05-20T21:53:07.050Z,18.15
2019-05-20T21:55:37.368Z,18.16
2019-05-20T21:58:07.684Z,18.13
2019-05-20T22:00:42.680Z,18.10
2019-05-20T22:03:23.893Z,18.09
2019-05-20T22:05:45.041Z,18.09
2019-05-20T22:08:16.244Z,18.03
2019-05-20T22:10:46.570Z,17.98
2019-05-20T22:13:16.865Z,17.96
2019-05-20T22:15:47.090Z,17.90
2019-05-20T22:18:17.349Z,17.87
2019-05-20T22:20:47.600Z,17.85
2019-05-20T22:23:25.226Z,17.80
2019-05-20T22:25:55.456Z,17.78
2019-05-20T22:28:25.687Z,17.73
2019-05-20T22:30:56.039Z,17.72
2019-05-20T22:33:40.462Z,17.68
2019-05-20T22:35:58.175Z,17.68
2019-05-20T22:38:28.404Z,17.71
2019-05-20T22:40:58.626Z,17.68
2019-05-20T22:43:28.811Z,17.71
2019-05-20T22:45:58.997Z,17.68
2019-05-20T22:48:29.255Z,17.64
2019-05-20T22:50:59.414Z,17.62
2019-05-20T22:53:29.633Z,17.56
2019-05-20T22:55:59.798Z,17.54
2019-05-20T22:58:29.941Z,17.50
2019-05-20T23:01:00.154Z,17.44
2019-05-20T23:03:30.365Z,17.39
2019-05-20T23:06:00.589Z,17.38
2019-05-20T23:08:30.862Z,17.32
2019-05-20T23:11:01.013Z,17.27
2019-05-20T23:13:31.224Z,17.21
2019-05-20T23:16:01.452Z,17.16
2019-05-20T23:18:31.676Z,17.10
2019-05-20T23:21:01.997Z,17.04
2019-05-20T23:23:32.169Z,16.94
2019-05-20T23:26:02.464Z,16.91
2019-05-20T23:28:32.616Z,16.88
2019-05-20T23:31:02.922Z,16.83
2019-05-20T23:33:33.091Z,16.83
2019-05-20T23:36:03.312Z,16.80
2019-05-20T23:38:33.678Z,16.77
2019-05-20T23:41:03.868Z,16.72
2019-05-20T23:43:34.131Z,16.68
2019-05-20T23:46:04.374Z,16.65
2019-05-20T23:48:34.545Z,16.64
2019-05-20T23:51:04.777Z,16.62
2019-05-20T23:53:34.964Z,16.61
2019-05-20T23:56:05.290Z,16.58
2019-05-20T23:58:35.519Z,16.56
